sensor_id;sensor_type;location;lat;lon;timestamp;temperature;humidity
30628;DHT22;17394;50.890;4.724;2023-07-31T00:00:20;15.90;99.90
30628;DHT22;17394;50.890;4.724;2023-07-31T00:02:47;15.90;99.90
30628;DHT22;17394;50.890;4.724;2023-07-31T00:05:13;15.90;99.90
30628;DHT22;17394;50.890;4.724;2023-07-31T00:07:39;15.90;99.90
30628;DHT22;17394;50.890;4.724;2023-07-31T00:10:06;16.00;99.90
30628;DHT22;17394;50.890;4.724;2023-07-31T00:12:34;16.00;99.90
30628;DHT22;17394;50.890;4.724;2023-07-31T00:15:01;16.10;99.90
30628;DHT22;17394;50.890;4.724;2023-07-31T00:17:27;16.10;99.90
30628;DHT22;17394;50.890;4.724;2023-07-31T00:19:53;16.20;99.90
30628;DHT22;17394;50.890;4.724;2023-07-31T00:22:19;16.20;99.90
30628;DHT22;17394;50.890;4.724;2023-07-31T00:24:45;16.20;99.90
30628;DHT22;17394;50.890;4.724;2023-07-31T00:27:11;16.30;99.90
30628;DHT22;17394;50.890;4.724;2023-07-31T00:29:37;16.30;99.90
30628;DHT22;17394;50.890;4.724;2023-07-31T00:32:03;16.30;99.90
30628;DHT22;17394;50.890;4.724;2023-07-31T00:34:29;16.30;99.90
30628;DHT22;17394;50.890;4.724;2023-07-31T00:36:55;16.40;99.90
30628;DHT22;17394;50.890;4.724;2023-07-31T00:39:21;16.40;99.90
30628;DHT22;17394;50.890;4.724;2023-07-31T00:41:49;16.40;99.90
30628;DHT22;17394;50.890;4.724;2023-07-31T00:44:15;16.40;99.90
30628;DHT22;17394;50.890;4.724;2023-07-31T00:46:41;16.40;99.90
30628;DHT22;17394;50.890;4.724;2023-07-31T00:49:07;16.40;99.90
30628;DHT22;17394;50.890;4.724;2023-07-31T00:51:33;16.50;99.90
30628;DHT22;17394;50.890;4.724;2023-07-31T00:53:59;16.50;99.90
30628;DHT22;17394;50.890;4.724;2023-07-31T00:56:25;16.50;99.90
30628;DHT22;17394;50.890;4.724;2023-07-31T00:58:52;16.00;99.90
30628;DHT22;17394;50.890;4.724;2023-07-31T01:01:18;16.60;99.90
30628;DHT22;17394;50.890;4.724;2023-07-31T01:03:43;16.60;99.90
30628;DHT22;17394;50.890;4.724;2023-07-31T01:06:14;16.60;99.90
30628;DHT22;17394;50.890;4.724;2023-07-31T01:09:04;16.60;99.90
30628;DHT22;17394;50.890;4.724;2023-07-31T01:11:34;16.60;99.90
30628;DHT22;17394;50.890;4.724;2023-07-31T01:14:04;16.70;99.90
30628;DHT22;17394;50.890;4.724;2023-07-31T01:16:30;16.70;99.90
30628;DHT22;17394;50.890;4.724;2023-07-31T01:18:56;16.70;99.90
30628;DHT22;17394;50.890;4.724;2023-07-31T01:23:56;16.70;99.90
30628;DHT22;17394;50.890;4.724;2023-07-31T01:26:27;16.80;99.90
30628;DHT22;17394;50.890;4.724;2023-07-31T01:28:59;16.80;99.90
30628;DHT22;17394;50.890;4.724;2023-07-31T01:31:26;16.70;99.90
30628;DHT22;17394;50.890;4.724;2023-07-31T01:33:53;16.80;99.90
30628;DHT22;17394;50.890;4.724;2023-07-31T01:36:20;16.70;99.90
30628;DHT22;17394;50.890;4.724;2023-07-31T01:38:46;16.70;99.90
30628;DHT22;17394;50.890;4.724;2023-07-31T01:41:12;16.80;99.90
30628;DHT22;17394;50.890;4.724;2023-07-31T01:43:38;16.80;99.90
30628;DHT22;17394;50.890;4.724;2023-07-31T01:46:04;16.80;99.90
30628;DHT22;17394;50.890;4.724;2023-07-31T01:48:30;16.80;99.90
30628;DHT22;17394;50.890;4.724;2023-07-31T01:51:01;16.90;99.90
30628;DHT22;17394;50.890;4.724;2023-07-31T01:53:27;16.80;99.90
30628;DHT22;17394;50.890;4.724;2023-07-31T01:55:53;16.90;99.90
30628;DHT22;17394;50.890;4.724;2023-07-31T01:58:19;16.90;99.90
30628;DHT22;17394;50.890;4.724;2023-07-31T02:00:45;16.90;99.90
30628;DHT22;17394;50.890;4.724;2023-07-31T02:03:11;16.80;99.90
30628;DHT22;17394;50.890;4.724;2023-07-31T02:05:43;16.80;99.90
30628;DHT22;17394;50.890;4.724;2023-07-31T02:08:09;16.90;99.90
30628;DHT22;17394;50.890;4.724;2023-07-31T02:10:35;16.80;99.90
30628;DHT22;17394;50.890;4.724;2023-07-31T02:13:01;16.90;99.90
30628;DHT22;17394;50.890;4.724;2023-07-31T02:15:32;16.90;99.90
30628;DHT22;17394;50.890;4.724;2023-07-31T02:17:57;16.90;99.90
30628;DHT22;17394;50.890;4.724;2023-07-31T02:20:24;16.90;99.90
30628;DHT22;17394;50.890;4.724;2023-07-31T02:22:50;16.90;99.90
30628;DHT22;17394;50.890;4.724;2023-07-31T02:25:16;16.90;99.90
30628;DHT22;17394;50.890;4.724;2023-07-31T02:27:42;16.90;99.90
30628;DHT22;17394;50.890;4.724;2023-07-31T02:30:09;16.90;99.90
30628;DHT22;17394;50.890;4.724;2023-07-31T02:32:35;16.90;99.90
30628;DHT22;17394;50.890;4.724;2023-07-31T02:35:01;16.90;99.90
30628;DHT22;17394;50.890;4.724;2023-07-31T02:37:27;16.90;99.90
30628;DHT22;17394;50.890;4.724;2023-07-31T02:39:54;16.90;99.90
30628;DHT22;17394;50.890;4.724;2023-07-31T02:42:20;16.90;99.90
30628;DHT22;17394;50.890;4.724;2023-07-31T02:44:46;16.90;99.90
30628;DHT22;17394;50.890;4.724;2023-07-31T02:47:12;16.90;99.90
30628;DHT22;17394;50.890;4.724;2023-07-31T02:49:39;16.90;99.90
30628;DHT22;17394;50.890;4.724;2023-07-31T02:52:06;16.90;99.90
30628;DHT22;17394;50.890;4.724;2023-07-31T02:54:32;16.90;99.90
30628;DHT22;17394;50.890;4.724;2023-07-31T02:56:57;16.90;99.90
30628;DHT22;17394;50.890;4.724;2023-07-31T02:59:23;16.90;99.90
30628;DHT22;17394;50.890;4.724;2023-07-31T03:01:50;16.90;99.90
30628;DHT22;17394;50.890;4.724;2023-07-31T03:04:18;17.00;99.90
30628;DHT22;17394;50.890;4.724;2023-07-31T03:06:43;16.90;99.90
30628;DHT22;17394;50.890;4.724;2023-07-31T03:09:10;16.90;99.90
30628;DHT22;17394;50.890;4.724;2023-07-31T03:11:35;16.90;99.90
30628;DHT22;17394;50.890;4.724;2023-07-31T03:14:01;17.00;99.90
30628;DHT22;17394;50.890;4.724;2023-07-31T03:16:27;17.00;99.90
30628;DHT22;17394;50.890;4.724;2023-07-31T03:18:54;17.00;99.90
30628;DHT22;17394;50.890;4.724;2023-07-31T03:21:20;17.00;99.90
30628;DHT22;17394;50.890;4.724;2023-07-31T03:23:47;17.00;99.90
30628;DHT22;17394;50.890;4.724;2023-07-31T03:26:12;17.10;99.90
30628;DHT22;17394;50.890;4.724;2023-07-31T03:28:40;17.00;99.90
30628;DHT22;17394;50.890;4.724;2023-07-31T03:31:06;17.10;99.90
30628;DHT22;17394;50.890;4.724;2023-07-31T03:33:33;17.10;99.90
30628;DHT22;17394;50.890;4.724;2023-07-31T03:35:59;17.10;99.90
30628;DHT22;17394;50.890;4.724;2023-07-31T03:38:25;17.10;99.90
30628;DHT22;17394;50.890;4.724;2023-07-31T03:40:51;17.10;99.90
30628;DHT22;17394;50.890;4.724;2023-07-31T03:43:17;17.10;99.90
30628;DHT22;17394;50.890;4.724;2023-07-31T03:45:43;17.10;99.90
30628;DHT22;17394;50.890;4.724;2023-07-31T03:48:09;17.10;99.90
30628;DHT22;17394;50.890;4.724;2023-07-31T03:50:35;17.10;99.90
30628;DHT22;17394;50.890;4.724;2023-07-31T03:53:00;17.10;99.90
30628;DHT22;17394;50.890;4.724;2023-07-31T03:55:26;17.10;99.90
30628;DHT22;17394;50.890;4.724;2023-07-31T03:57:54;17.50;99.90
30628;DHT22;17394;50.890;4.724;2023-07-31T04:00:20;17.10;99.90
30628;DHT22;17394;50.890;4.724;2023-07-31T04:02:48;17.10;99.90
30628;DHT22;17394;50.890;4.724;2023-07-31T04:05:14;17.10;99.90
30628;DHT22;17394;50.890;4.724;2023-07-31T04:07:39;17.50;99.90
30628;DHT22;17394;50.890;4.724;2023-07-31T04:10:06;16.90;99.90
30628;DHT22;17394;50.890;4.724;2023-07-31T04:12:32;17.00;99.90
30628;DHT22;17394;50.890;4.724;2023-07-31T04:14:58;17.00;99.90
30628;DHT22;17394;50.890;4.724;2023-07-31T04:17:23;17.00;99.90
30628;DHT22;17394;50.890;4.724;2023-07-31T04:19:49;17.00;99.90
30628;DHT22;17394;50.890;4.724;2023-07-31T04:22:15;17.50;99.90
30628;DHT22;17394;50.890;4.724;2023-07-31T04:24:41;16.90;99.90
30628;DHT22;17394;50.890;4.724;2023-07-31T04:27:07;16.90;99.90
30628;DHT22;17394;50.890;4.724;2023-07-31T04:29:33;16.90;99.90
30628;DHT22;17394;50.890;4.724;2023-07-31T04:31:59;16.80;99.90
30628;DHT22;17394;50.890;4.724;2023-07-31T04:34:25;17.10;99.90
30628;DHT22;17394;50.890;4.724;2023-07-31T04:36:51;16.80;99.90
30628;DHT22;17394;50.890;4.724;2023-07-31T04:39:17;16.80;99.90
30628;DHT22;17394;50.890;4.724;2023-07-31T04:41:43;16.80;99.90
30628;DHT22;17394;50.890;4.724;2023-07-31T04:44:08;16.80;99.90
30628;DHT22;17394;50.890;4.724;2023-07-31T04:46:36;16.80;99.90
30628;DHT22;17394;50.890;4.724;2023-07-31T04:49:02;16.80;99.90
30628;DHT22;17394;50.890;4.724;2023-07-31T04:51:29;16.80;99.90
30628;DHT22;17394;50.890;4.724;2023-07-31T04:53:55;16.80;99.90
30628;DHT22;17394;50.890;4.724;2023-07-31T04:56:22;16.80;99.90
30628;DHT22;17394;50.890;4.724;2023-07-31T04:58:48;16.90;99.90
30628;DHT22;17394;50.890;4.724;2023-07-31T05:01:14;16.90;99.90
30628;DHT22;17394;50.890;4.724;2023-07-31T05:03:40;16.90;99.90
30628;DHT22;17394;50.890;4.724;2023-07-31T05:06:06;16.90;99.90
30628;DHT22;17394;50.890;4.724;2023-07-31T05:08:32;16.90;99.90
30628;DHT22;17394;50.890;4.724;2023-07-31T05:10:58;16.90;99.90
30628;DHT22;17394;50.890;4.724;2023-07-31T05:13:24;17.80;99.90
30628;DHT22;17394;50.890;4.724;2023-07-31T05:15:50;16.90;99.90
30628;DHT22;17394;50.890;4.724;2023-07-31T05:18:17;16.90;99.90
30628;DHT22;17394;50.890;4.724;2023-07-31T05:20:43;16.90;99.90
30628;DHT22;17394;50.890;4.724;2023-07-31T05:23:09;16.90;99.90
30628;DHT22;17394;50.890;4.724;2023-07-31T05:25:34;16.90;99.90
30628;DHT22;17394;50.890;4.724;2023-07-31T05:28:01;16.90;99.90
30628;DHT22;17394;50.890;4.724;2023-07-31T05:30:29;16.90;99.90
30628;DHT22;17394;50.890;4.724;2023-07-31T05:32:55;16.80;99.90
30628;DHT22;17394;50.890;4.724;2023-07-31T05:35:21;16.20;99.90
30628;DHT22;17394;50.890;4.724;2023-07-31T05:37:47;16.80;99.90
30628;DHT22;17394;50.890;4.724;2023-07-31T05:40:13;16.80;99.90
30628;DHT22;17394;50.890;4.724;2023-07-31T05:42:39;18.10;99.90
30628;DHT22;17394;50.890;4.724;2023-07-31T05:45:06;16.70;99.90
30628;DHT22;17394;50.890;4.724;2023-07-31T05:47:33;16.70;99.90
30628;DHT22;17394;50.890;4.724;2023-07-31T05:50:00;16.70;99.90
30628;DHT22;17394;50.890;4.724;2023-07-31T05:52:26;16.70;99.90
30628;DHT22;17394;50.890;4.724;2023-07-31T05:54:54;16.60;99.90
30628;DHT22;17394;50.890;4.724;2023-07-31T05:57:20;16.60;99.90
30628;DHT22;17394;50.890;4.724;2023-07-31T05:59:46;16.60;99.90
30628;DHT22;17394;50.890;4.724;2023-07-31T06:02:12;16.40;99.90
30628;DHT22;17394;50.890;4.724;2023-07-31T06:04:37;16.50;99.90
30628;DHT22;17394;50.890;4.724;2023-07-31T06:07:03;16.50;99.90
30628;DHT22;17394;50.890;4.724;2023-07-31T06:09:29;16.50;99.90
30628;DHT22;17394;50.890;4.724;2023-07-31T06:11:55;16.40;99.90
30628;DHT22;17394;50.890;4.724;2023-07-31T06:14:21;16.40;99.90
30628;DHT22;17394;50.890;4.724;2023-07-31T06:16:47;16.40;99.90
30628;DHT22;17394;50.890;4.724;2023-07-31T06:19:13;16.40;99.90
30628;DHT22;17394;50.890;4.724;2023-07-31T06:21:39;16.40;99.90
30628;DHT22;17394;50.890;4.724;2023-07-31T06:24:07;16.40;99.90
30628;DHT22;17394;50.890;4.724;2023-07-31T06:26:33;16.40;99.90
30628;DHT22;17394;50.890;4.724;2023-07-31T06:28:59;16.40;99.90
30628;DHT22;17394;50.890;4.724;2023-07-31T06:31:26;16.40;99.90
30628;DHT22;17394;50.890;4.724;2023-07-31T06:33:52;16.40;99.90
30628;DHT22;17394;50.890;4.724;2023-07-31T06:36:18;16.50;99.90
30628;DHT22;17394;50.890;4.724;2023-07-31T06:38:44;16.50;99.90
30628;DHT22;17394;50.890;4.724;2023-07-31T06:41:10;16.50;99.90
30628;DHT22;17394;50.890;4.724;2023-07-31T06:43:36;16.60;99.90
30628;DHT22;17394;50.890;4.724;2023-07-31T06:46:07;16.60;99.90
30628;DHT22;17394;50.890;4.724;2023-07-31T06:48:33;16.60;99.90
30628;DHT22;17394;50.890;4.724;2023-07-31T06:51:00;16.70;99.90
30628;DHT22;17394;50.890;4.724;2023-07-31T06:53:26;16.70;99.90
30628;DHT22;17394;50.890;4.724;2023-07-31T06:55:52;16.70;99.90
30628;DHT22;17394;50.890;4.724;2023-07-31T06:58:18;16.30;99.90
30628;DHT22;17394;50.890;4.724;2023-07-31T07:00:44;16.80;99.90
30628;DHT22;17394;50.890;4.724;2023-07-31T07:03:10;16.90;99.90
30628;DHT22;17394;50.890;4.724;2023-07-31T07:05:36;17.00;99.90
30628;DHT22;17394;50.890;4.724;2023-07-31T07:08:03;17.10;99.90
30628;DHT22;17394;50.890;4.724;2023-07-31T07:10:29;17.20;99.90
30628;DHT22;17394;50.890;4.724;2023-07-31T07:12:56;17.30;99.90
30628;DHT22;17394;50.890;4.724;2023-07-31T07:15:21;17.30;99.90
30628;DHT22;17394;50.890;4.724;2023-07-31T07:17:47;17.30;99.90
30628;DHT22;17394;50.890;4.724;2023-07-31T07:20:13;17.40;99.90
30628;DHT22;17394;50.890;4.724;2023-07-31T07:22:39;17.40;99.90
30628;DHT22;17394;50.890;4.724;2023-07-31T07:25:06;17.50;99.90
30628;DHT22;17394;50.890;4.724;2023-07-31T07:27:33;17.50;99.90
30628;DHT22;17394;50.890;4.724;2023-07-31T07:29:59;17.60;99.90
30628;DHT22;17394;50.890;4.724;2023-07-31T07:32:25;17.60;99.90
30628;DHT22;17394;50.890;4.724;2023-07-31T07:34:51;17.70;99.90
30628;DHT22;17394;50.890;4.724;2023-07-31T07:37:17;17.90;99.90
30628;DHT22;17394;50.890;4.724;2023-07-31T07:39:44;18.00;99.90
30628;DHT22;17394;50.890;4.724;2023-07-31T07:42:10;18.00;99.90
30628;DHT22;17394;50.890;4.724;2023-07-31T07:44:36;18.00;99.90
30628;DHT22;17394;50.890;4.724;2023-07-31T07:47:03;18.00;99.90
30628;DHT22;17394;50.890;4.724;2023-07-31T07:49:32;17.90;99.90
30628;DHT22;17394;50.890;4.724;2023-07-31T07:51:58;17.90;99.90
30628;DHT22;17394;50.890;4.724;2023-07-31T07:54:25;17.90;99.90
30628;DHT22;17394;50.890;4.724;2023-07-31T07:56:51;17.90;99.90
30628;DHT22;17394;50.890;4.724;2023-07-31T07:59:17;18.00;99.90
30628;DHT22;17394;50.890;4.724;2023-07-31T08:01:43;18.00;99.90
30628;DHT22;17394;50.890;4.724;2023-07-31T08:04:09;17.90;99.90
30628;DHT22;17394;50.890;4.724;2023-07-31T08:06:35;17.90;99.90
30628;DHT22;17394;50.890;4.724;2023-07-31T08:09:03;18.00;99.90
30628;DHT22;17394;50.890;4.724;2023-07-31T08:11:35;18.00;99.90
30628;DHT22;17394;50.890;4.724;2023-07-31T08:14:01;18.00;99.90
30628;DHT22;17394;50.890;4.724;2023-07-31T08:16:27;18.00;99.90
30628;DHT22;17394;50.890;4.724;2023-07-31T08:18:53;18.10;99.90
30628;DHT22;17394;50.890;4.724;2023-07-31T08:21:19;18.10;99.90
30628;DHT22;17394;50.890;4.724;2023-07-31T08:23:46;18.10;99.90
30628;DHT22;17394;50.890;4.724;2023-07-31T08:26:18;18.10;99.90
30628;DHT22;17394;50.890;4.724;2023-07-31T08:28:44;18.20;99.90
30628;DHT22;17394;50.890;4.724;2023-07-31T08:31:10;18.30;99.90
30628;DHT22;17394;50.890;4.724;2023-07-31T08:33:36;18.40;99.90
30628;DHT22;17394;50.890;4.724;2023-07-31T08:36:03;18.40;99.90
30628;DHT22;17394;50.890;4.724;2023-07-31T08:38:29;18.70;99.90
30628;DHT22;17394;50.890;4.724;2023-07-31T08:40:58;18.50;99.90
30628;DHT22;17394;50.890;4.724;2023-07-31T08:43:27;18.60;99.90
30628;DHT22;17394;50.890;4.724;2023-07-31T08:45:53;18.60;99.90
30628;DHT22;17394;50.890;4.724;2023-07-31T08:48:23;18.50;99.90
30628;DHT22;17394;50.890;4.724;2023-07-31T08:50:51;18.60;99.90
30628;DHT22;17394;50.890;4.724;2023-07-31T08:53:17;18.60;99.90
30628;DHT22;17394;50.890;4.724;2023-07-31T08:55:43;18.60;99.90
30628;DHT22;17394;50.890;4.724;2023-07-31T08:58:09;18.60;99.90
30628;DHT22;17394;50.890;4.724;2023-07-31T09:00:37;18.60;99.90
30628;DHT22;17394;50.890;4.724;2023-07-31T09:03:23;18.60;99.90
30628;DHT22;17394;50.890;4.724;2023-07-31T09:05:50;18.60;99.90
30628;DHT22;17394;50.890;4.724;2023-07-31T09:08:18;18.60;99.90
30628;DHT22;17394;50.890;4.724;2023-07-31T09:10:45;18.60;99.90
30628;DHT22;17394;50.890;4.724;2023-07-31T09:13:12;18.70;99.90
30628;DHT22;17394;50.890;4.724;2023-07-31T09:15:38;18.70;99.90
30628;DHT22;17394;50.890;4.724;2023-07-31T09:18:05;18.60;99.90
30628;DHT22;17394;50.890;4.724;2023-07-31T09:20:31;18.60;99.90
30628;DHT22;17394;50.890;4.724;2023-07-31T09:23:05;18.60;99.90
30628;DHT22;17394;50.890;4.724;2023-07-31T09:25:31;18.60;99.90
30628;DHT22;17394;50.890;4.724;2023-07-31T09:27:58;18.60;99.90
30628;DHT22;17394;50.890;4.724;2023-07-31T09:30:24;18.60;99.90
30628;DHT22;17394;50.890;4.724;2023-07-31T09:32:51;18.60;99.90
30628;DHT22;17394;50.890;4.724;2023-07-31T09:37:53;18.70;99.90
30628;DHT22;17394;50.890;4.724;2023-07-31T09:40:29;18.80;99.90
30628;DHT22;17394;50.890;4.724;2023-07-31T09:42:56;18.80;99.90
30628;DHT22;17394;50.890;4.724;2023-07-31T09:45:22;18.90;99.90
30628;DHT22;17394;50.890;4.724;2023-07-31T09:47:48;19.10;99.90
30628;DHT22;17394;50.890;4.724;2023-07-31T09:50:14;19.40;99.90
30628;DHT22;17394;50.890;4.724;2023-07-31T09:52:41;19.60;99.90
30628;DHT22;17394;50.890;4.724;2023-07-31T09:55:08;19.80;99.90
30628;DHT22;17394;50.890;4.724;2023-07-31T09:57:34;20.00;99.90
30628;DHT22;17394;50.890;4.724;2023-07-31T10:00:02;20.10;99.90
30628;DHT22;17394;50.890;4.724;2023-07-31T10:02:29;20.20;99.90
30628;DHT22;17394;50.890;4.724;2023-07-31T10:04:57;20.30;99.90
30628;DHT22;17394;50.890;4.724;2023-07-31T10:07:25;20.40;99.90
30628;DHT22;17394;50.890;4.724;2023-07-31T10:09:53;20.30;99.90
30628;DHT22;17394;50.890;4.724;2023-07-31T10:12:20;20.30;99.90
30628;DHT22;17394;50.890;4.724;2023-07-31T10:14:48;20.20;99.90
30628;DHT22;17394;50.890;4.724;2023-07-31T10:17:14;19.70;99.90
30628;DHT22;17394;50.890;4.724;2023-07-31T10:19:40;20.20;99.90
30628;DHT22;17394;50.890;4.724;2023-07-31T10:22:08;20.30;99.90
30628;DHT22;17394;50.890;4.724;2023-07-31T10:24:34;20.30;99.90
30628;DHT22;17394;50.890;4.724;2023-07-31T10:27:00;20.20;99.90
30628;DHT22;17394;50.890;4.724;2023-07-31T10:29:27;20.10;99.90
30628;DHT22;17394;50.890;4.724;2023-07-31T10:31:56;20.20;99.90
30628;DHT22;17394;50.890;4.724;2023-07-31T10:34:22;20.20;99.90
30628;DHT22;17394;50.890;4.724;2023-07-31T10:36:49;20.20;99.90
30628;DHT22;17394;50.890;4.724;2023-07-31T10:39:36;20.30;99.90
30628;DHT22;17394;50.890;4.724;2023-07-31T10:42:10;20.50;99.90
30628;DHT22;17394;50.890;4.724;2023-07-31T10:44:36;20.60;99.90
30628;DHT22;17394;50.890;4.724;2023-07-31T10:47:02;20.80;99.90
30628;DHT22;17394;50.890;4.724;2023-07-31T10:49:29;20.90;99.90
30628;DHT22;17394;50.890;4.724;2023-07-31T10:51:57;20.90;99.90
30628;DHT22;17394;50.890;4.724;2023-07-31T10:54:23;20.90;99.90
30628;DHT22;17394;50.890;4.724;2023-07-31T10:56:52;20.80;99.90
30628;DHT22;17394;50.890;4.724;2023-07-31T10:59:18;20.60;99.90
30628;DHT22;17394;50.890;4.724;2023-07-31T11:04:24;20.20;99.90
30628;DHT22;17394;50.890;4.724;2023-07-31T11:07:09;20.20;99.90
30628;DHT22;17394;50.890;4.724;2023-07-31T11:09:37;20.30;99.90
30628;DHT22;17394;50.890;4.724;2023-07-31T11:12:03;20.40;99.90
30628;DHT22;17394;50.890;4.724;2023-07-31T11:14:30;20.40;99.90
30628;DHT22;17394;50.890;4.724;2023-07-31T11:16:56;20.40;99.90
30628;DHT22;17394;50.890;4.724;2023-07-31T11:19:25;20.60;99.90
30628;DHT22;17394;50.890;4.724;2023-07-31T11:21:51;20.80;99.90
30628;DHT22;17394;50.890;4.724;2023-07-31T11:24:18;21.00;99.90
30628;DHT22;17394;50.890;4.724;2023-07-31T11:26:51;21.00;99.90
30628;DHT22;17394;50.890;4.724;2023-07-31T11:29:17;21.10;99.90
30628;DHT22;17394;50.890;4.724;2023-07-31T11:31:44;21.20;99.90
30628;DHT22;17394;50.890;4.724;2023-07-31T11:34:10;21.20;99.90
30628;DHT22;17394;50.890;4.724;2023-07-31T11:36:36;21.20;99.90
30628;DHT22;17394;50.890;4.724;2023-07-31T11:39:06;21.30;99.90
30628;DHT22;17394;50.890;4.724;2023-07-31T11:41:32;21.50;99.90
30628;DHT22;17394;50.890;4.724;2023-07-31T11:44:01;21.50;99.90
30628;DHT22;17394;50.890;4.724;2023-07-31T11:46:30;21.50;99.90
30628;DHT22;17394;50.890;4.724;2023-07-31T11:49:00;21.50;99.90
30628;DHT22;17394;50.890;4.724;2023-07-31T11:51:27;21.50;99.90
30628;DHT22;17394;50.890;4.724;2023-07-31T11:53:56;21.60;99.90
30628;DHT22;17394;50.890;4.724;2023-07-31T11:56:23;21.60;99.90
30628;DHT22;17394;50.890;4.724;2023-07-31T11:58:51;21.50;99.90
30628;DHT22;17394;50.890;4.724;2023-07-31T12:01:19;21.50;99.90
30628;DHT22;17394;50.890;4.724;2023-07-31T12:03:48;21.40;99.90
30628;DHT22;17394;50.890;4.724;2023-07-31T12:06:14;21.40;99.90
30628;DHT22;17394;50.890;4.724;2023-07-31T12:08:40;21.30;99.90
30628;DHT22;17394;50.890;4.724;2023-07-31T12:11:07;21.30;99.90
30628;DHT22;17394;50.890;4.724;2023-07-31T12:13:35;21.20;99.90
30628;DHT22;17394;50.890;4.724;2023-07-31T12:16:01;21.30;99.90
30628;DHT22;17394;50.890;4.724;2023-07-31T12:18:29;21.30;99.90
30628;DHT22;17394;50.890;4.724;2023-07-31T12:20:56;21.30;99.90
30628;DHT22;17394;50.890;4.724;2023-07-31T12:23:24;21.30;99.90
30628;DHT22;17394;50.890;4.724;2023-07-31T12:25:59;21.40;99.90
30628;DHT22;17394;50.890;4.724;2023-07-31T12:28:25;21.60;99.90
30628;DHT22;17394;50.890;4.724;2023-07-31T12:30:51;21.70;99.90
30628;DHT22;17394;50.890;4.724;2023-07-31T12:33:18;21.70;99.90
30628;DHT22;17394;50.890;4.724;2023-07-31T12:35:45;21.60;99.90
30628;DHT22;17394;50.890;4.724;2023-07-31T12:38:12;21.60;99.90
30628;DHT22;17394;50.890;4.724;2023-07-31T12:40:39;21.50;99.90
30628;DHT22;17394;50.890;4.724;2023-07-31T12:43:05;21.40;99.90
30628;DHT22;17394;50.890;4.724;2023-07-31T12:45:32;21.30;99.90
30628;DHT22;17394;50.890;4.724;2023-07-31T12:47:59;21.30;99.90
30628;DHT22;17394;50.890;4.724;2023-07-31T12:50:25;21.40;99.90
30628;DHT22;17394;50.890;4.724;2023-07-31T12:52:52;21.50;99.90
30628;DHT22;17394;50.890;4.724;2023-07-31T12:55:18;21.50;99.90
30628;DHT22;17394;50.890;4.724;2023-07-31T12:57:45;21.60;99.90
30628;DHT22;17394;50.890;4.724;2023-07-31T13:00:11;21.60;99.90
30628;DHT22;17394;50.890;4.724;2023-07-31T13:02:38;21.50;99.90
30628;DHT22;17394;50.890;4.724;2023-07-31T13:05:06;21.50;99.90
30628;DHT22;17394;50.890;4.724;2023-07-31T13:07:32;21.70;99.90
30628;DHT22;17394;50.890;4.724;2023-07-31T13:09:59;21.90;99.90
30628;DHT22;17394;50.890;4.724;2023-07-31T13:12:25;21.80;99.90
30628;DHT22;17394;50.890;4.724;2023-07-31T13:14:51;21.80;99.90
30628;DHT22;17394;50.890;4.724;2023-07-31T13:17:17;21.60;99.90
30628;DHT22;17394;50.890;4.724;2023-07-31T13:19:43;21.50;99.90
30628;DHT22;17394;50.890;4.724;2023-07-31T13:22:09;21.50;99.90
30628;DHT22;17394;50.890;4.724;2023-07-31T13:24:37;21.40;99.90
30628;DHT22;17394;50.890;4.724;2023-07-31T13:27:03;21.20;99.90
30628;DHT22;17394;50.890;4.724;2023-07-31T13:29:29;21.00;99.90
30628;DHT22;17394;50.890;4.724;2023-07-31T13:31:55;20.90;99.90
30628;DHT22;17394;50.890;4.724;2023-07-31T13:34:21;20.90;99.90
30628;DHT22;17394;50.890;4.724;2023-07-31T13:36:47;20.80;99.90
30628;DHT22;17394;50.890;4.724;2023-07-31T13:39:13;20.60;99.90
30628;DHT22;17394;50.890;4.724;2023-07-31T13:41:38;20.50;99.90
30628;DHT22;17394;50.890;4.724;2023-07-31T13:44:05;20.30;99.90
30628;DHT22;17394;50.890;4.724;2023-07-31T13:46:31;20.10;99.90
30628;DHT22;17394;50.890;4.724;2023-07-31T13:49:00;19.90;99.90
30628;DHT22;17394;50.890;4.724;2023-07-31T13:51:27;19.80;99.90
30628;DHT22;17394;50.890;4.724;2023-07-31T13:53:53;19.70;99.90
30628;DHT22;17394;50.890;4.724;2023-07-31T13:56:19;19.20;99.90
30628;DHT22;17394;50.890;4.724;2023-07-31T13:58:45;19.40;99.90
30628;DHT22;17394;50.890;4.724;2023-07-31T14:01:11;19.30;99.90
30628;DHT22;17394;50.890;4.724;2023-07-31T14:03:38;19.20;99.90
30628;DHT22;17394;50.890;4.724;2023-07-31T14:06:04;19.10;99.90
30628;DHT22;17394;50.890;4.724;2023-07-31T14:08:30;19.00;99.90
30628;DHT22;17394;50.890;4.724;2023-07-31T14:10:56;19.00;99.90
30628;DHT22;17394;50.890;4.724;2023-07-31T14:13:22;18.90;99.90
30628;DHT22;17394;50.890;4.724;2023-07-31T14:15:48;18.80;99.90
30628;DHT22;17394;50.890;4.724;2023-07-31T14:18:14;18.80;99.90
30628;DHT22;17394;50.890;4.724;2023-07-31T14:20:40;18.70;99.90
30628;DHT22;17394;50.890;4.724;2023-07-31T14:23:05;18.60;99.90
30628;DHT22;17394;50.890;4.724;2023-07-31T14:25:31;18.60;99.90
30628;DHT22;17394;50.890;4.724;2023-07-31T14:27:57;18.50;99.90
30628;DHT22;17394;50.890;4.724;2023-07-31T14:30:22;18.50;99.90
30628;DHT22;17394;50.890;4.724;2023-07-31T14:32:48;18.50;99.90
30628;DHT22;17394;50.890;4.724;2023-07-31T14:35:14;18.50;99.90
30628;DHT22;17394;50.890;4.724;2023-07-31T14:37:40;18.70;99.90
30628;DHT22;17394;50.890;4.724;2023-07-31T14:40:10;18.40;99.90
30628;DHT22;17394;50.890;4.724;2023-07-31T14:42:36;17.90;99.90
30628;DHT22;17394;50.890;4.724;2023-07-31T14:45:04;18.40;99.90
30628;DHT22;17394;50.890;4.724;2023-07-31T14:47:30;18.40;99.90
30628;DHT22;17394;50.890;4.724;2023-07-31T14:49:59;18.40;99.90
30628;DHT22;17394;50.890;4.724;2023-07-31T14:52:25;18.40;99.90
30628;DHT22;17394;50.890;4.724;2023-07-31T14:54:51;18.40;99.90
30628;DHT22;17394;50.890;4.724;2023-07-31T14:57:17;18.40;99.90
30628;DHT22;17394;50.890;4.724;2023-07-31T14:59:43;18.40;99.90
30628;DHT22;17394;50.890;4.724;2023-07-31T15:02:09;18.40;99.90
30628;DHT22;17394;50.890;4.724;2023-07-31T15:04:35;18.40;99.90
30628;DHT22;17394;50.890;4.724;2023-07-31T15:07:02;18.30;99.90
30628;DHT22;17394;50.890;4.724;2023-07-31T15:09:28;18.40;99.90
30628;DHT22;17394;50.890;4.724;2023-07-31T15:11:55;18.30;99.90
30628;DHT22;17394;50.890;4.724;2023-07-31T15:14:22;18.40;99.90
30628;DHT22;17394;50.890;4.724;2023-07-31T15:16:48;18.40;99.90
30628;DHT22;17394;50.890;4.724;2023-07-31T15:19:16;18.40;99.90
30628;DHT22;17394;50.890;4.724;2023-07-31T15:21:42;18.30;99.90
30628;DHT22;17394;50.890;4.724;2023-07-31T15:24:08;18.40;99.90
30628;DHT22;17394;50.890;4.724;2023-07-31T15:26:36;18.30;99.90
30628;DHT22;17394;50.890;4.724;2023-07-31T15:29:03;18.30;99.90
30628;DHT22;17394;50.890;4.724;2023-07-31T15:31:34;18.40;99.90
30628;DHT22;17394;50.890;4.724;2023-07-31T15:34:00;18.40;99.90